sensor_id;sensor_type;location;lat;lon;timestamp;P1;durP1;ratioP1;P2;durP2;ratioP2
6203;SDS011;3135;42.602;23.468;2022-12-07T00:01:14;34.93;;;13.60;;
6203;SDS011;3135;42.602;23.468;2022-12-07T00:03:51;30.23;;;13.10;;
6203;SDS011;3135;42.602;23.468;2022-12-07T00:06:22;23.03;;;10.23;;
6203;SDS011;3135;42.602;23.468;2022-12-07T00:08:47;28.60;;;12.10;;
6203;SDS011;3135;42.602;23.468;2022-12-07T00:11:17;31.60;;;12.30;;
6203;SDS011;3135;42.602;23.468;2022-12-07T00:13:44;33.85;;;11.57;;
6203;SDS011;3135;42.602;23.468;2022-12-07T00:16:12;19.90;;;8.10;;
6203;SDS011;3135;42.602;23.468;2022-12-07T00:18:39;97.03;;;27.52;;
6203;SDS011;3135;42.602;23.468;2022-12-07T00:21:06;111.57;;;31.47;;
6203;SDS011;3135;42.602;23.468;2022-12-07T00:23:43;43.88;;;15.90;;
6203;SDS011;3135;42.602;23.468;2022-12-07T00:26:10;67.82;;;23.40;;
6203;SDS011;3135;42.602;23.468;2022-12-07T00:28:38;31.77;;;14.10;;
6203;SDS011;3135;42.602;23.468;2022-12-07T00:31:04;23.67;;;9.65;;
6203;SDS011;3135;42.602;23.468;2022-12-07T00:33:32;19.25;;;9.07;;
6203;SDS011;3135;42.602;23.468;2022-12-07T00:35:58;15.80;;;6.95;;
6203;SDS011;3135;42.602;23.468;2022-12-07T00:38:27;56.47;;;18.95;;
6203;SDS011;3135;42.602;23.468;2022-12-07T00:40:55;15.45;;;6.15;;
6203;SDS011;3135;42.602;23.468;2022-12-07T00:43:24;12.70;;;5.72;;
6203;SDS011;3135;42.602;23.468;2022-12-07T00:45:50;15.13;;;6.60;;
6203;SDS011;3135;42.602;23.468;2022-12-07T00:48:16;13.30;;;5.50;;
6203;SDS011;3135;42.602;23.468;2022-12-07T00:50:41;12.83;;;5.57;;
6203;SDS011;3135;42.602;23.468;2022-12-07T00:53:07;11.77;;;5.33;;
6203;SDS011;3135;42.602;23.468;2022-12-07T00:55:33;14.70;;;6.20;;
6203;SDS011;3135;42.602;23.468;2022-12-07T00:57:59;9.57;;;4.70;;
6203;SDS011;3135;42.602;23.468;2022-12-07T01:00:24;10.93;;;5.20;;
6203;SDS011;3135;42.602;23.468;2022-12-07T01:02:49;13.65;;;6.72;;
6203;SDS011;3135;42.602;23.468;2022-12-07T01:05:15;21.67;;;9.18;;
6203;SDS011;3135;42.602;23.468;2022-12-07T01:07:40;17.65;;;7.18;;
6203;SDS011;3135;42.602;23.468;2022-12-07T01:10:06;14.23;;;6.70;;
6203;SDS011;3135;42.602;23.468;2022-12-07T01:12:32;14.25;;;6.32;;
6203;SDS011;3135;42.602;23.468;2022-12-07T01:14:57;12.32;;;5.82;;
6203;SDS011;3135;42.602;23.468;2022-12-07T01:17:23;14.05;;;5.43;;
6203;SDS011;3135;42.602;23.468;2022-12-07T01:19:48;10.20;;;5.07;;
6203;SDS011;3135;42.602;23.468;2022-12-07T01:22:14;10.10;;;4.00;;
6203;SDS011;3135;42.602;23.468;2022-12-07T01:24:39;12.10;;;5.40;;
6203;SDS011;3135;42.602;23.468;2022-12-07T01:27:04;12.90;;;6.43;;
6203;SDS011;3135;42.602;23.468;2022-12-07T01:29:30;13.13;;;5.50;;
6203;SDS011;3135;42.602;23.468;2022-12-07T01:31:55;11.00;;;5.13;;
6203;SDS011;3135;42.602;23.468;2022-12-07T01:34:21;12.67;;;5.23;;
6203;SDS011;3135;42.602;23.468;2022-12-07T01:36:46;13.40;;;6.57;;
6203;SDS011;3135;42.602;23.468;2022-12-07T01:39:12;12.73;;;5.65;;
6203;SDS011;3135;42.602;23.468;2022-12-07T01:41:38;30.38;;;10.98;;
6203;SDS011;3135;42.602;23.468;2022-12-07T01:44:16;17.90;;;8.77;;
6203;SDS011;3135;42.602;23.468;2022-12-07T01:46:46;24.58;;;10.98;;
6203;SDS011;3135;42.602;23.468;2022-12-07T01:51:54;14.25;;;6.82;;
6203;SDS011;3135;42.602;23.468;2022-12-07T01:54:43;12.38;;;5.00;;
6203;SDS011;3135;42.602;23.468;2022-12-07T01:57:09;17.00;;;8.18;;
6203;SDS011;3135;42.602;23.468;2022-12-07T01:59:37;13.43;;;6.45;;
6203;SDS011;3135;42.602;23.468;2022-12-07T02:02:04;12.60;;;5.40;;
6203;SDS011;3135;42.602;23.468;2022-12-07T02:04:36;13.55;;;5.03;;
6203;SDS011;3135;42.602;23.468;2022-12-07T02:07:01;14.93;;;6.07;;
6203;SDS011;3135;42.602;23.468;2022-12-07T02:09:29;12.20;;;5.30;;
6203;SDS011;3135;42.602;23.468;2022-12-07T02:11:55;13.10;;;5.47;;
6203;SDS011;3135;42.602;23.468;2022-12-07T02:14:21;13.70;;;5.85;;
6203;SDS011;3135;42.602;23.468;2022-12-07T02:16:53;13.97;;;6.00;;
6203;SDS011;3135;42.602;23.468;2022-12-07T02:27:56;30.02;;;10.85;;
6203;SDS011;3135;42.602;23.468;2022-12-07T02:30:31;15.03;;;6.63;;
6203;SDS011;3135;42.602;23.468;2022-12-07T02:33:04;13.83;;;5.10;;
6203;SDS011;3135;42.602;23.468;2022-12-07T02:35:43;14.73;;;6.20;;
6203;SDS011;3135;42.602;23.468;2022-12-07T02:38:35;12.07;;;5.63;;
6203;SDS011;3135;42.602;23.468;2022-12-07T02:41:10;13.50;;;7.03;;
6203;SDS011;3135;42.602;23.468;2022-12-07T02:43:46;12.48;;;5.60;;
6203;SDS011;3135;42.602;23.468;2022-12-07T02:46:20;155.75;;;35.53;;
6203;SDS011;3135;42.602;23.468;2022-12-07T02:48:48;77.10;;;21.95;;
6203;SDS011;3135;42.602;23.468;2022-12-07T02:51:17;34.95;;;12.23;;
6203;SDS011;3135;42.602;23.468;2022-12-07T02:53:44;23.63;;;9.38;;
6203;SDS011;3135;42.602;23.468;2022-12-07T03:10:19;168.25;;;42.25;;
6203;SDS011;3135;42.602;23.468;2022-12-07T03:12:57;69.35;;;21.08;;
6203;SDS011;3135;42.602;23.468;2022-12-07T03:15:29;32.33;;;11.87;;
6203;SDS011;3135;42.602;23.468;2022-12-07T03:17:58;157.68;;;43.42;;
6203;SDS011;3135;42.602;23.468;2022-12-07T03:20:26;153.73;;;43.50;;
6203;SDS011;3135;42.602;23.468;2022-12-07T03:22:54;98.13;;;27.40;;
6203;SDS011;3135;42.602;23.468;2022-12-07T03:25:20;154.02;;;40.22;;
6203;SDS011;3135;42.602;23.468;2022-12-07T03:27:54;49.00;;;16.65;;
6203;SDS011;3135;42.602;23.468;2022-12-07T03:30:27;301.40;;;64.82;;
6203;SDS011;3135;42.602;23.468;2022-12-07T03:33:06;236.10;;;54.00;;
6203;SDS011;3135;42.602;23.468;2022-12-07T03:35:40;176.63;;;38.05;;
6203;SDS011;3135;42.602;23.468;2022-12-07T03:38:23;50.58;;;13.95;;
6203;SDS011;3135;42.602;23.468;2022-12-07T03:41:05;16.05;;;5.68;;
6203;SDS011;3135;42.602;23.468;2022-12-07T03:43:33;311.77;;;61.78;;
6203;SDS011;3135;42.602;23.468;2022-12-07T03:48:45;279.60;;;54.60;;
6203;SDS011;3135;42.602;23.468;2022-12-07T03:51:29;168.00;;;35.70;;
6203;SDS011;3135;42.602;23.468;2022-12-07T03:56:49;18.75;;;6.63;;
6203;SDS011;3135;42.602;23.468;2022-12-07T03:59:17;14.70;;;5.70;;
6203;SDS011;3135;42.602;23.468;2022-12-07T04:01:43;18.38;;;6.72;;
6203;SDS011;3135;42.602;23.468;2022-12-07T04:04:10;27.50;;;7.95;;
6203;SDS011;3135;42.602;23.468;2022-12-07T04:06:36;28.10;;;9.60;;
6203;SDS011;3135;42.602;23.468;2022-12-07T04:09:01;26.43;;;9.97;;
6203;SDS011;3135;42.602;23.468;2022-12-07T04:11:27;29.13;;;11.23;;
6203;SDS011;3135;42.602;23.468;2022-12-07T04:13:52;29.27;;;10.83;;
6203;SDS011;3135;42.602;23.468;2022-12-07T04:16:36;29.27;;;12.45;;
6203;SDS011;3135;42.602;23.468;2022-12-07T04:19:02;34.40;;;15.18;;
6203;SDS011;3135;42.602;23.468;2022-12-07T04:21:27;25.77;;;11.20;;
6203;SDS011;3135;42.602;23.468;2022-12-07T04:23:52;25.23;;;10.63;;
6203;SDS011;3135;42.602;23.468;2022-12-07T04:26:18;20.73;;;9.33;;
6203;SDS011;3135;42.602;23.468;2022-12-07T04:28:43;24.77;;;10.10;;
6203;SDS011;3135;42.602;23.468;2022-12-07T04:31:09;31.07;;;14.00;;
6203;SDS011;3135;42.602;23.468;2022-12-07T04:33:35;16.97;;;9.97;;
6203;SDS011;3135;42.602;23.468;2022-12-07T04:36:01;18.77;;;8.18;;
6203;SDS011;3135;42.602;23.468;2022-12-07T04:38:27;11.97;;;5.63;;
6203;SDS011;3135;42.602;23.468;2022-12-07T04:40:52;15.57;;;6.13;;
6203;SDS011;3135;42.602;23.468;2022-12-07T04:43:17;17.53;;;8.67;;
6203;SDS011;3135;42.602;23.468;2022-12-07T04:45:46;25.55;;;13.52;;
6203;SDS011;3135;42.602;23.468;2022-12-07T04:48:12;91.68;;;27.60;;
6203;SDS011;3135;42.602;23.468;2022-12-07T04:50:38;70.65;;;23.80;;
6203;SDS011;3135;42.602;23.468;2022-12-07T04:53:03;26.50;;;9.10;;
6203;SDS011;3135;42.602;23.468;2022-12-07T04:55:29;13.17;;;5.97;;
6203;SDS011;3135;42.602;23.468;2022-12-07T04:57:54;12.47;;;5.50;;
6203;SDS011;3135;42.602;23.468;2022-12-07T05:00:20;13.10;;;4.50;;
6203;SDS011;3135;42.602;23.468;2022-12-07T05:02:45;11.18;;;5.28;;
6203;SDS011;3135;42.602;23.468;2022-12-07T05:05:10;36.40;;;14.23;;
6203;SDS011;3135;42.602;23.468;2022-12-07T05:07:36;13.77;;;6.00;;
6203;SDS011;3135;42.602;23.468;2022-12-07T05:10:02;22.67;;;12.60;;
6203;SDS011;3135;42.602;23.468;2022-12-07T05:12:27;13.63;;;6.47;;
6203;SDS011;3135;42.602;23.468;2022-12-07T05:14:53;13.70;;;5.38;;
6203;SDS011;3135;42.602;23.468;2022-12-07T05:17:18;11.15;;;4.75;;
6203;SDS011;3135;42.602;23.468;2022-12-07T05:19:43;14.20;;;6.23;;
6203;SDS011;3135;42.602;23.468;2022-12-07T05:22:09;10.33;;;5.40;;
6203;SDS011;3135;42.602;23.468;2022-12-07T05:24:35;11.63;;;4.78;;
6203;SDS011;3135;42.602;23.468;2022-12-07T05:27:00;16.37;;;7.20;;
6203;SDS011;3135;42.602;23.468;2022-12-07T05:29:26;16.00;;;7.30;;
6203;SDS011;3135;42.602;23.468;2022-12-07T05:31:51;20.73;;;9.63;;
6203;SDS011;3135;42.602;23.468;2022-12-07T05:34:17;13.70;;;5.30;;
6203;SDS011;3135;42.602;23.468;2022-12-07T05:36:42;25.40;;;9.47;;
6203;SDS011;3135;42.602;23.468;2022-12-07T05:39:08;32.88;;;12.38;;
6203;SDS011;3135;42.602;23.468;2022-12-07T05:41:33;77.40;;;22.77;;
6203;SDS011;3135;42.602;23.468;2022-12-07T05:44:17;63.22;;;19.00;;
6203;SDS011;3135;42.602;23.468;2022-12-07T05:46:43;74.43;;;24.60;;
6203;SDS011;3135;42.602;23.468;2022-12-07T05:49:08;152.00;;;42.47;;
6203;SDS011;3135;42.602;23.468;2022-12-07T05:51:34;146.67;;;41.50;;
6203;SDS011;3135;42.602;23.468;2022-12-07T05:53:59;145.00;;;36.43;;
6203;SDS011;3135;42.602;23.468;2022-12-07T05:56:25;25.30;;;9.75;;
6203;SDS011;3135;42.602;23.468;2022-12-07T05:58:51;18.38;;;6.95;;
6203;SDS011;3135;42.602;23.468;2022-12-07T06:01:35;16.20;;;6.20;;
6203;SDS011;3135;42.602;23.468;2022-12-07T06:04:01;32.67;;;9.73;;
6203;SDS011;3135;42.602;23.468;2022-12-07T06:06:26;385.63;;;75.72;;
6203;SDS011;3135;42.602;23.468;2022-12-07T06:08:52;157.60;;;35.13;;
6203;SDS011;3135;42.602;23.468;2022-12-07T06:11:17;165.07;;;34.57;;
6203;SDS011;3135;42.602;23.468;2022-12-07T06:14:01;49.90;;;12.55;;
6203;SDS011;3135;42.602;23.468;2022-12-07T06:16:26;568.37;;;114.70;;
6203;SDS011;3135;42.602;23.468;2022-12-07T06:18:52;626.03;;;147.77;;
6203;SDS011;3135;42.602;23.468;2022-12-07T06:21:17;538.10;;;130.03;;
6203;SDS011;3135;42.602;23.468;2022-12-07T06:23:43;215.13;;;53.40;;
6203;SDS011;3135;42.602;23.468;2022-12-07T06:26:08;69.90;;;21.33;;
6203;SDS011;3135;42.602;23.468;2022-12-07T06:28:33;36.70;;;14.20;;
6203;SDS011;3135;42.602;23.468;2022-12-07T06:30:59;44.25;;;19.80;;
6203;SDS011;3135;42.602;23.468;2022-12-07T06:33:26;44.72;;;17.02;;
6203;SDS011;3135;42.602;23.468;2022-12-07T06:35:52;30.25;;;12.65;;
6203;SDS011;3135;42.602;23.468;2022-12-07T06:38:17;24.93;;;11.10;;
6203;SDS011;3135;42.602;23.468;2022-12-07T06:40:43;28.57;;;11.93;;
6203;SDS011;3135;42.602;23.468;2022-12-07T06:43:08;24.17;;;9.67;;
6203;SDS011;3135;42.602;23.468;2022-12-07T06:45:34;26.02;;;11.00;;
6203;SDS011;3135;42.602;23.468;2022-12-07T06:48:00;25.67;;;10.23;;
6203;SDS011;3135;42.602;23.468;2022-12-07T06:50:25;22.80;;;9.23;;
6203;SDS011;3135;42.602;23.468;2022-12-07T06:52:51;36.87;;;11.73;;
6203;SDS011;3135;42.602;23.468;2022-12-07T06:55:16;35.42;;;12.52;;
6203;SDS011;3135;42.602;23.468;2022-12-07T06:57:42;31.67;;;11.07;;
6203;SDS011;3135;42.602;23.468;2022-12-07T07:00:08;38.58;;;13.70;;
6203;SDS011;3135;42.602;23.468;2022-12-07T07:02:34;34.65;;;12.43;;
6203;SDS011;3135;42.602;23.468;2022-12-07T07:04:59;34.93;;;13.20;;
6203;SDS011;3135;42.602;23.468;2022-12-07T07:07:24;33.27;;;10.50;;
6203;SDS011;3135;42.602;23.468;2022-12-07T07:09:50;27.92;;;10.50;;
6203;SDS011;3135;42.602;23.468;2022-12-07T07:12:15;35.50;;;12.85;;
6203;SDS011;3135;42.602;23.468;2022-12-07T07:14:41;33.60;;;12.48;;
6203;SDS011;3135;42.602;23.468;2022-12-07T07:17:08;28.58;;;11.05;;
6203;SDS011;3135;42.602;23.468;2022-12-07T07:19:33;35.17;;;12.80;;
6203;SDS011;3135;42.602;23.468;2022-12-07T07:21:58;34.00;;;13.10;;
6203;SDS011;3135;42.602;23.468;2022-12-07T07:24:24;28.60;;;11.23;;
6203;SDS011;3135;42.602;23.468;2022-12-07T07:26:49;27.23;;;9.43;;
6203;SDS011;3135;42.602;23.468;2022-12-07T07:29:15;25.90;;;9.10;;
6203;SDS011;3135;42.602;23.468;2022-12-07T07:31:40;28.65;;;10.27;;
6203;SDS011;3135;42.602;23.468;2022-12-07T07:34:05;28.25;;;10.25;;
6203;SDS011;3135;42.602;23.468;2022-12-07T07:36:32;28.50;;;9.82;;
6203;SDS011;3135;42.602;23.468;2022-12-07T07:38:57;28.38;;;9.93;;
6203;SDS011;3135;42.602;23.468;2022-12-07T07:41:23;25.60;;;10.25;;
6203;SDS011;3135;42.602;23.468;2022-12-07T07:43:48;28.27;;;10.43;;
6203;SDS011;3135;42.602;23.468;2022-12-07T07:46:13;28.67;;;10.87;;
6203;SDS011;3135;42.602;23.468;2022-12-07T07:48:39;28.13;;;11.10;;
6203;SDS011;3135;42.602;23.468;2022-12-07T07:51:05;32.70;;;12.00;;
6203;SDS011;3135;42.602;23.468;2022-12-07T07:53:32;27.02;;;10.50;;
6203;SDS011;3135;42.602;23.468;2022-12-07T07:55:57;26.40;;;9.73;;
6203;SDS011;3135;42.602;23.468;2022-12-07T07:58:23;30.07;;;9.73;;
6203;SDS011;3135;42.602;23.468;2022-12-07T08:00:48;22.13;;;8.77;;
6203;SDS011;3135;42.602;23.468;2022-12-07T08:03:14;28.05;;;9.77;;
6203;SDS011;3135;42.602;23.468;2022-12-07T08:05:40;30.35;;;11.55;;
6203;SDS011;3135;42.602;23.468;2022-12-07T08:08:06;24.50;;;8.70;;
6203;SDS011;3135;42.602;23.468;2022-12-07T08:10:31;26.57;;;10.40;;
6203;SDS011;3135;42.602;23.468;2022-12-07T08:12:57;22.00;;;9.27;;
6203;SDS011;3135;42.602;23.468;2022-12-07T08:15:43;29.48;;;12.27;;
6203;SDS011;3135;42.602;23.468;2022-12-07T08:18:10;25.95;;;9.75;;
6203;SDS011;3135;42.602;23.468;2022-12-07T08:20:37;23.08;;;8.63;;
6203;SDS011;3135;42.602;23.468;2022-12-07T08:23:04;20.00;;;8.90;;
6203;SDS011;3135;42.602;23.468;2022-12-07T08:25:30;21.98;;;9.15;;
6203;SDS011;3135;42.602;23.468;2022-12-07T08:27:56;27.48;;;10.57;;
6203;SDS011;3135;42.602;23.468;2022-12-07T08:30:21;30.47;;;11.83;;
6203;SDS011;3135;42.602;23.468;2022-12-07T08:32:47;29.20;;;11.57;;
6203;SDS011;3135;42.602;23.468;2022-12-07T08:35:13;28.98;;;11.63;;
6203;SDS011;3135;42.602;23.468;2022-12-07T08:37:40;28.77;;;11.03;;
6203;SDS011;3135;42.602;23.468;2022-12-07T08:40:06;30.52;;;11.40;;
6203;SDS011;3135;42.602;23.468;2022-12-07T08:42:34;37.47;;;13.70;;
6203;SDS011;3135;42.602;23.468;2022-12-07T08:47:31;32.05;;;13.93;;
6203;SDS011;3135;42.602;23.468;2022-12-07T08:49:58;38.58;;;15.52;;
6203;SDS011;3135;42.602;23.468;2022-12-07T08:52:28;46.07;;;17.43;;
6203;SDS011;3135;42.602;23.468;2022-12-07T08:54:55;39.40;;;15.18;;
6203;SDS011;3135;42.602;23.468;2022-12-07T08:57:21;35.08;;;13.82;;
6203;SDS011;3135;42.602;23.468;2022-12-07T08:59:47;31.73;;;12.67;;
6203;SDS011;3135;42.602;23.468;2022-12-07T09:02:12;40.42;;;14.50;;
6203;SDS011;3135;42.602;23.468;2022-12-07T09:04:38;37.65;;;14.40;;
6203;SDS011;3135;42.602;23.468;2022-12-07T09:07:03;42.58;;;15.95;;
6203;SDS011;3135;42.602;23.468;2022-12-07T09:09:29;42.28;;;16.35;;
6203;SDS011;3135;42.602;23.468;2022-12-07T09:11:55;40.37;;;15.23;;
6203;SDS011;3135;42.602;23.468;2022-12-07T09:14:20;41.20;;;15.83;;
6203;SDS011;3135;42.602;23.468;2022-12-07T09:16:46;35.35;;;14.80;;
6203;SDS011;3135;42.602;23.468;2022-12-07T09:19:11;38.05;;;15.15;;
6203;SDS011;3135;42.602;23.468;2022-12-07T09:21:37;42.03;;;15.97;;
6203;SDS011;3135;42.602;23.468;2022-12-07T09:24:02;41.57;;;17.30;;
6203;SDS011;3135;42.602;23.468;2022-12-07T09:26:28;47.07;;;18.23;;
6203;SDS011;3135;42.602;23.468;2022-12-07T09:28:53;45.80;;;17.87;;
6203;SDS011;3135;42.602;23.468;2022-12-07T09:31:19;47.10;;;17.87;;
6203;SDS011;3135;42.602;23.468;2022-12-07T09:33:44;41.90;;;17.33;;
6203;SDS011;3135;42.602;23.468;2022-12-07T09:36:10;48.28;;;17.95;;
6203;SDS011;3135;42.602;23.468;2022-12-07T09:38:35;48.65;;;18.90;;
6203;SDS011;3135;42.602;23.468;2022-12-07T09:41:05;50.85;;;18.98;;
6203;SDS011;3135;42.602;23.468;2022-12-07T09:43:32;53.42;;;19.67;;
6203;SDS011;3135;42.602;23.468;2022-12-07T09:45:59;55.72;;;20.92;;
6203;SDS011;3135;42.602;23.468;2022-12-07T09:50:56;44.95;;;18.38;;
6203;SDS011;3135;42.602;23.468;2022-12-07T09:53:28;41.20;;;15.80;;
6203;SDS011;3135;42.602;23.468;2022-12-07T09:55:58;40.67;;;15.40;;
6203;SDS011;3135;42.602;23.468;2022-12-07T09:58:25;58.50;;;22.30;;
6203;SDS011;3135;42.602;23.468;2022-12-07T10:01:15;47.45;;;17.42;;
6203;SDS011;3135;42.602;23.468;2022-12-07T10:03:39;81.10;;;25.90;;
6203;SDS011;3135;42.602;23.468;2022-12-07T10:06:07;47.35;;;18.05;;
6203;SDS011;3135;42.602;23.468;2022-12-07T10:08:35;43.72;;;17.73;;
6203;SDS011;3135;42.602;23.468;2022-12-07T10:11:01;45.90;;;18.23;;
6203;SDS011;3135;42.602;23.468;2022-12-07T10:13:39;49.87;;;18.77;;
6203;SDS011;3135;42.602;23.468;2022-12-07T10:16:32;52.72;;;19.83;;
6203;SDS011;3135;42.602;23.468;2022-12-07T10:24:28;40.33;;;15.65;;
6203;SDS011;3135;42.602;23.468;2022-12-07T10:26:53;34.83;;;14.77;;
6203;SDS011;3135;42.602;23.468;2022-12-07T10:29:30;38.95;;;14.52;;
6203;SDS011;3135;42.602;23.468;2022-12-07T10:31:59;35.95;;;14.35;;
6203;SDS011;3135;42.602;23.468;2022-12-07T10:34:49;37.38;;;15.52;;
6203;SDS011;3135;42.602;23.468;2022-12-07T10:37:18;38.37;;;16.03;;
6203;SDS011;3135;42.602;23.468;2022-12-07T10:39:49;41.35;;;16.27;;
6203;SDS011;3135;42.602;23.468;2022-12-07T10:42:21;41.55;;;16.25;;
6203;SDS011;3135;42.602;23.468;2022-12-07T10:44:50;40.10;;;17.02;;
6203;SDS011;3135;42.602;23.468;2022-12-07T10:53:59;43.85;;;15.95;;
6203;SDS011;3135;42.602;23.468;2022-12-07T11:21:58;43.60;;;16.90;;
6203;SDS011;3135;42.602;23.468;2022-12-07T11:24:32;46.33;;;17.27;;
6203;SDS011;3135;42.602;23.468;2022-12-07T11:27:11;52.20;;;19.48;;
6203;SDS011;3135;42.602;23.468;2022-12-07T11:38:43;40.88;;;15.10;;
6203;SDS011;3135;42.602;23.468;2022-12-07T11:41:15;31.25;;;13.13;;
6203;SDS011;3135;42.602;23.468;2022-12-07T11:46:43;34.00;;;13.50;;
6203;SDS011;3135;42.602;23.468;2022-12-07T11:49:12;42.38;;;16.27;;
6203;SDS011;3135;42.602;23.468;2022-12-07T11:51:46;42.95;;;17.45;;
6203;SDS011;3135;42.602;23.468;2022-12-07T11:54:24;46.50;;;17.55;;
6203;SDS011;3135;42.602;23.468;2022-12-07T11:56:55;44.95;;;15.95;;
6203;SDS011;3135;42.602;23.468;2022-12-07T11:59:38;43.17;;;16.03;;
6203;SDS011;3135;42.602;23.468;2022-12-07T12:02:19;45.97;;;16.50;;
6203;SDS011;3135;42.602;23.468;2022-12-07T12:07:44;42.70;;;15.27;;
6203;SDS011;3135;42.602;23.468;2022-12-07T12:10:51;40.13;;;15.13;;
6203;SDS011;3135;42.602;23.468;2022-12-07T12:13:22;37.08;;;14.35;;
6203;SDS011;3135;42.602;23.468;2022-12-07T12:21:20;33.55;;;13.20;;
6203;SDS011;3135;42.602;23.468;2022-12-07T12:23:57;36.17;;;13.07;;
6203;SDS011;3135;42.602;23.468;2022-12-07T12:26:27;36.85;;;13.82;;
6203;SDS011;3135;42.602;23.468;2022-12-07T12:28:58;33.75;;;13.75;;
6203;SDS011;3135;42.602;23.468;2022-12-07T12:33:52;35.90;;;14.30;;
6203;SDS011;3135;42.602;23.468;2022-12-07T12:46:46;49.13;;;18.83;;
6203;SDS011;3135;42.602;23.468;2022-12-07T12:54:19;58.20;;;20.20;;
6203;SDS011;3135;42.602;23.468;2022-12-07T13:02:24;54.92;;;18.92;;
6203;SDS011;3135;42.602;23.468;2022-12-07T13:15:44;48.00;;;18.17;;
6203;SDS011;3135;42.602;23.468;2022-12-07T13:31:43;24.63;;;10.27;;
6203;SDS011;3135;42.602;23.468;2022-12-07T13:39:58;42.42;;;18.02;;
6203;SDS011;3135;42.602;23.468;2022-12-07T13:44:51;55.08;;;22.92;;
6203;SDS011;3135;42.602;23.468;2022-12-07T13:49:49;33.20;;;13.45;;
6203;SDS011;3135;42.602;23.468;2022-12-07T13:52:21;37.00;;;14.32;;
6203;SDS011;3135;42.602;23.468;2022-12-07T13:57:25;51.00;;;21.60;;
6203;SDS011;3135;42.602;23.468;2022-12-07T13:59:53;29.55;;;11.32;;
6203;SDS011;3135;42.602;23.468;2022-12-07T14:02:29;54.20;;;23.38;;
6203;SDS011;3135;42.602;23.468;2022-12-07T14:05:15;36.25;;;15.20;;
6203;SDS011;3135;42.602;23.468;2022-12-07T14:07:52;230.15;;;86.50;;
6203;SDS011;3135;42.602;23.468;2022-12-07T14:10:26;248.87;;;96.10;;
6203;SDS011;3135;42.602;23.468;2022-12-07T14:12:57;41.22;;;17.52;;
6203;SDS011;3135;42.602;23.468;2022-12-07T14:15:44;26.55;;;10.35;;
6203;SDS011;3135;42.602;23.468;2022-12-07T14:18:24;45.15;;;14.63;;
6203;SDS011;3135;42.602;23.468;2022-12-07T14:21:01;39.65;;;16.20;;
6203;SDS011;3135;42.602;23.468;2022-12-07T14:23:28;28.65;;;12.45;;
6203;SDS011;3135;42.602;23.468;2022-12-07T14:25:53;34.03;;;12.43;;
6203;SDS011;3135;42.602;23.468;2022-12-07T14:28:29;40.33;;;15.80;;
6203;SDS011;3135;42.602;23.468;2022-12-07T14:30:56;345.42;;;75.43;;
6203;SDS011;3135;42.602;23.468;2022-12-07T14:33:22;217.88;;;50.35;;
6203;SDS011;3135;42.602;23.468;2022-12-07T14:35:49;29.88;;;10.60;;
6203;SDS011;3135;42.602;23.468;2022-12-07T14:38:15;34.37;;;12.37;;
6203;SDS011;3135;42.602;23.468;2022-12-07T14:40:43;28.45;;;10.82;;
6203;SDS011;3135;42.602;23.468;2022-12-07T14:43:09;60.17;;;21.53;;
6203;SDS011;3135;42.602;23.468;2022-12-07T14:45:40;69.00;;;26.65;;
6203;SDS011;3135;42.602;23.468;2022-12-07T14:48:13;36.97;;;15.63;;
6203;SDS011;3135;42.602;23.468;2022-12-07T14:50:49;44.13;;;18.65;;
6203;SDS011;3135;42.602;23.468;2022-12-07T14:53:18;77.70;;;34.78;;
6203;SDS011;3135;42.602;23.468;2022-12-07T14:55:52;25.20;;;10.82;;
6203;SDS011;3135;42.602;23.468;2022-12-07T14:58:17;29.67;;;11.30;;
6203;SDS011;3135;42.602;23.468;2022-12-07T15:00:43;18.92;;;8.23;;
6203;SDS011;3135;42.602;23.468;2022-12-07T15:03:09;31.57;;;12.37;;
6203;SDS011;3135;42.602;23.468;2022-12-07T15:05:35;30.98;;;11.52;;
6203;SDS011;3135;42.602;23.468;2022-12-07T15:08:02;23.67;;;9.73;;
6203;SDS011;3135;42.602;23.468;2022-12-07T15:10:29;24.58;;;8.60;;
6203;SDS011;3135;42.602;23.468;2022-12-07T15:13:01;20.77;;;7.80;;
6203;SDS011;3135;42.602;23.468;2022-12-07T15:15:46;20.42;;;8.50;;
6203;SDS011;3135;42.602;23.468;2022-12-07T15:18:13;15.68;;;7.18;;
6203;SDS011;3135;42.602;23.468;2022-12-07T15:20:39;67.15;;;21.50;;
6203;SDS011;3135;42.602;23.468;2022-12-07T15:23:05;35.50;;;13.03;;
6203;SDS011;3135;42.602;23.468;2022-12-07T15:25:31;29.27;;;10.50;;
6203;SDS011;3135;42.602;23.468;2022-12-07T15:27:56;21.70;;;8.02;;
6203;SDS011;3135;42.602;23.468;2022-12-07T15:30:22;30.98;;;11.38;;
6203;SDS011;3135;42.602;23.468;2022-12-07T15:32:51;30.92;;;11.05;;
6203;SDS011;3135;42.602;23.468;2022-12-07T15:35:17;26.30;;;9.93;;
6203;SDS011;3135;42.602;23.468;2022-12-07T15:37:43;16.50;;;6.88;;
6203;SDS011;3135;42.602;23.468;2022-12-07T15:40:09;18.23;;;8.33;;
6203;SDS011;3135;42.602;23.468;2022-12-07T15:42:35;18.80;;;7.32;;
6203;SDS011;3135;42.602;23.468;2022-12-07T15:45:01;14.70;;;7.27;;
6203;SDS011;3135;42.602;23.468;2022-12-07T15:47:40;16.05;;;7.68;;
6203;SDS011;3135;42.602;23.468;2022-12-07T15:50:08;14.18;;;5.80;;
6203;SDS011;3135;42.602;23.468;2022-12-07T15:52:35;18.08;;;7.85;;
6203;SDS011;3135;42.602;23.468;2022-12-07T15:55:01;13.95;;;6.05;;
6203;SDS011;3135;42.602;23.468;2022-12-07T15:57:30;13.23;;;4.63;;
6203;SDS011;3135;42.602;23.468;2022-12-07T15:59:56;15.80;;;6.40;;
6203;SDS011;3135;42.602;23.468;2022-12-07T16:02:22;22.42;;;7.57;;
6203;SDS011;3135;42.602;23.468;2022-12-07T16:04:50;13.52;;;5.22;;
6203;SDS011;3135;42.602;23.468;2022-12-07T16:07:17;6.07;;;3.60;;
6203;SDS011;3135;42.602;23.468;2022-12-07T16:09:43;11.98;;;4.70;;
6203;SDS011;3135;42.602;23.468;2022-12-07T16:12:09;10.25;;;4.82;;
6203;SDS011;3135;42.602;23.468;2022-12-07T16:14:35;12.27;;;5.37;;
6203;SDS011;3135;42.602;23.468;2022-12-07T16:17:01;12.45;;;4.90;;
6203;SDS011;3135;42.602;23.468;2022-12-07T16:19:27;10.90;;;4.60;;
6203;SDS011;3135;42.602;23.468;2022-12-07T16:21:52;9.88;;;4.15;;
6203;SDS011;3135;42.602;23.468;2022-12-07T16:24:18;20.55;;;7.25;;
6203;SDS011;3135;42.602;23.468;2022-12-07T16:26:44;16.35;;;7.07;;
6203;SDS011;3135;42.602;23.468;2022-12-07T16:29:13;9.50;;;4.68;;
6203;SDS011;3135;42.602;23.468;2022-12-07T16:31:39;11.30;;;5.45;;
6203;SDS011;3135;42.602;23.468;2022-12-07T16:34:05;21.27;;;9.05;;
6203;SDS011;3135;42.602;23.468;2022-12-07T16:36:31;10.13;;;4.10;;
6203;SDS011;3135;42.602;23.468;2022-12-07T16:38:58;13.17;;;6.70;;
6203;SDS011;3135;42.602;23.468;2022-12-07T16:41:25;27.80;;;11.43;;
6203;SDS011;3135;42.602;23.468;2022-12-07T16:43:50;22.17;;;8.20;;
6203;SDS011;3135;42.602;23.468;2022-12-07T16:46:16;16.27;;;6.67;;
6203;SDS011;3135;42.602;23.468;2022-12-07T16:48:42;29.35;;;11.60;;
6203;SDS011;3135;42.602;23.468;2022-12-07T16:51:08;7.93;;;3.33;;
6203;SDS011;3135;42.602;23.468;2022-12-07T16:53:37;6.93;;;3.00;;
6203;SDS011;3135;42.602;23.468;2022-12-07T16:56:03;6.70;;;3.33;;
6203;SDS011;3135;42.602;23.468;2022-12-07T16:58:34;7.60;;;3.33;;
6203;SDS011;3135;42.602;23.468;2022-12-07T17:00:59;6.23;;;3.10;;
6203;SDS011;3135;42.602;23.468;2022-12-07T17:03:34;16.70;;;6.63;;
6203;SDS011;3135;42.602;23.468;2022-12-07T17:05:59;11.87;;;5.83;;
6203;SDS011;3135;42.602;23.468;2022-12-07T17:08:24;11.00;;;5.10;;
6203;SDS011;3135;42.602;23.468;2022-12-07T17:10:50;19.73;;;8.13;;
6203;SDS011;3135;42.602;23.468;2022-12-07T17:13:15;15.33;;;6.07;;
6203;SDS011;3135;42.602;23.468;2022-12-07T17:16:00;14.48;;;6.20;;
6203;SDS011;3135;42.602;23.468;2022-12-07T17:18:29;20.67;;;7.28;;
6203;SDS011;3135;42.602;23.468;2022-12-07T17:21:01;22.38;;;8.68;;